Time;durP1;ratioP1;P1;durP2;ratioP2;P2;SDS_P1;SDS_P2;PMS_P1;PMS_P2;Temp;Humidity;BMP_temperature;BMP_pressure;BME280_temperature;BME280_humidity;BME280_pressure;Samples;Min_cycle;Max_cycle;Signal;HPM_P1;HPM_P2
2022/06/02 00:00:05;;;;;;;11.07;9.85;;;8.90;99.90;;;;;;4999472;28;89540;-35
2022/06/02 00:02:58;;;;;;;11.40;9.38;;;8.90;99.90;;;;;;4989918;28;89778;-36
2022/06/02 00:05:52;;;;;;;12.93;11.32;;;8.90;99.90;;;;;;5000232;28;88955;-35
2022/06/02 00:08:45;;;;;;;13.10;10.70;;;8.90;99.90;;;;;;4999934;28;89500;-34
2022/06/02 00:11:45;;;;;;;10.95;9.90;;;8.80;99.90;;;;;;5000186;28;89488;-34
2022/06/02 00:14:36;;;;;;;12.50;11.20;;;8.80;99.90;;;;;;5001131;28;90194;-35
2022/06/02 00:17:40;;;;;;;13.20;11.18;;;8.80;99.90;;;;;;4999865;28;89298;-38
2022/06/02 00:20:13;;;;;;;15.40;10.88;;;8.80;99.90;;;;;;4935730;28;89683;-34
2022/06/02 00:22:58;;;;;;;11.40;9.88;;;8.80;99.90;;;;;;4937959;28;88421;-35
2022/06/02 00:25:33;;;;;;;12.52;11.15;;;8.70;99.90;;;;;;4977369;28;90318;-34
2022/06/02 00:28:19;;;;;;;11.27;10.13;;;8.70;99.90;;;;;;4985050;28;90421;-37
2022/06/02 00:30:52;;;;;;;13.02;11.75;;;8.70;99.90;;;;;;4998990;28;90465;-38
2022/06/02 00:33:28;;;;;;;13.27;11.88;;;8.70;99.90;;;;;;4998969;28;88375;-34
2022/06/02 00:35:57;;;;;;;14.77;11.48;;;8.70;99.90;;;;;;4999347;28;90384;-35
2022/06/02 00:38:36;;;;;;;12.13;10.80;;;8.60;99.90;;;;;;4999275;28;89540;-41
2022/06/02 00:41:22;;;;;;;13.18;11.63;;;8.60;99.90;;;;;;4999325;28;89513;-34
2022/06/02 00:44:02;;;;;;;13.57;11.18;;;8.60;99.90;;;;;;4998580;28;87787;-34
2022/06/02 00:46:34;;;;;;;14.02;12.25;;;8.50;99.90;;;;;;4999727;28;90241;-34
2022/06/02 00:49:37;;;;;;;12.02;10.82;;;8.50;99.90;;;;;;4998957;28;89474;-37
2022/06/02 00:52:08;;;;;;;13.25;12.05;;;8.50;99.90;;;;;;5000011;28;89671;-34
2022/06/02 00:57:52;;;;;;;14.73;12.00;;;8.50;99.90;;;;;;4979253;28;90980;-38
2022/06/02 01:00:21;;;;;;;12.38;10.88;;;8.40;99.90;;;;;;4979991;28;91091;-34
2022/06/02 01:03:21;;;;;;;12.30;10.90;;;8.40;99.90;;;;;;4979968;28;90037;-36
2022/06/02 01:06:05;;;;;;;13.68;11.80;;;8.40;99.90;;;;;;4979173;28;88754;-35
2022/06/02 01:09:01;;;;;;;14.13;12.63;;;8.40;99.90;;;;;;4978651;28;89285;-37
2022/06/02 01:11:35;;;;;;;13.93;12.05;;;8.30;99.90;;;;;;4979051;28;90211;-35
2022/06/02 01:14:25;;;;;;;15.05;12.27;;;8.30;99.90;;;;;;4980097;28;89428;-34
2022/06/02 01:17:15;;;;;;;15.63;13.85;;;8.30;99.90;;;;;;4979340;28;88790;-37
2022/06/02 01:20:32;;;;;;;16.98;14.27;;;8.30;99.90;;;;;;4978821;28;90576;-37
2022/06/02 01:23:07;;;;;;;15.43;13.82;;;8.30;99.90;;;;;;4974390;28;90697;-41
2022/06/02 01:25:42;;;;;;;17.27;12.90;;;8.30;99.90;;;;;;4979408;28;90499;-34
2022/06/02 01:28:26;;;;;;;14.65;13.07;;;8.30;99.90;;;;;;4978972;28;87938;-35
2022/06/02 01:31:07;;;;;;;14.35;12.85;;;8.30;99.90;;;;;;4978580;28;90104;-37
2022/06/02 01:34:10;;;;;;;16.27;13.73;;;8.30;99.90;;;;;;4979036;28;90066;-34
2022/06/02 01:36:47;;;;;;;14.35;12.82;;;8.20;99.90;;;;;;4978885;28;89959;-36
2022/06/02 01:39:37;;;;;;;14.88;13.38;;;8.30;99.90;;;;;;4978572;28;88110;-35
2022/06/02 01:42:35;;;;;;;15.95;14.20;;;8.30;99.90;;;;;;4978453;28;90256;-35
2022/06/02 01:45:07;;;;;;;15.23;13.02;;;8.20;99.90;;;;;;4977497;28;90154;-34
2022/06/02 01:47:40;;;;;;;15.10;13.60;;;8.20;99.90;;;;;;4978964;28;88718;-33
2022/06/02 01:50:47;;;;;;;16.38;14.63;;;8.20;99.90;;;;;;4977948;28;88832;-33
2022/06/02 01:53:25;;;;;;;16.45;14.75;;;8.20;99.90;;;;;;4964407;28;90370;-34
2022/06/02 01:56:04;;;;;;;15.18;13.65;;;8.20;99.90;;;;;;4978095;28;89879;-39
2022/06/02 01:58:44;;;;;;;15.55;13.95;;;8.10;99.90;;;;;;4978643;28;88773;-35
2022/06/02 02:01:33;;;;;;;16.40;13.85;;;8.10;99.90;;;;;;4978694;28;90112;-34
2022/06/02 02:04:04;;;;;;;15.68;13.90;;;8.10;99.90;;;;;;4977123;28;90375;-35
2022/06/02 02:06:33;;;;;;;16.92;15.15;;;8.10;99.90;;;;;;4978472;28;90258;-35
2022/06/02 02:09:08;;;;;;;;;;;8.20;99.90;;;;;;4978612;28;89512;-36
2022/06/02 02:11:50;;;;;;;17.83;15.73;;;8.10;99.90;;;;;;4980845;28;87612;-34
2022/06/02 02:14:36;;;;;;;16.13;14.55;;;8.10;99.90;;;;;;4978044;28;90383;-38
2022/06/02 02:17:26;;;;;;;18.10;15.90;;;8.10;99.90;;;;;;4977736;28;90678;-33
2022/06/02 02:20:14;;;;;;;15.40;13.75;;;8.00;99.90;;;;;;4977924;28;90370;-35
2022/06/02 02:23:10;;;;;;;15.65;14.15;;;8.00;99.90;;;;;;4977757;28;88797;-37
2022/06/02 02:25:58;;;;;;;16.55;14.82;;;7.90;99.90;;;;;;4977606;28;89996;-36
2022/06/02 02:28:47;;;;;;;;;;;7.80;99.90;;;;;;4978535;28;89809;-37
2022/06/02 02:31:20;;;;;;;;;;;7.80;99.90;;;;;;4980782;28;89545;-37
2022/06/02 02:34:12;;;;;;;18.15;15.35;;;7.80;99.90;;;;;;4980307;28;87669;-37
2022/06/02 02:36:54;;;;;;;18.05;16.15;;;7.80;99.90;;;;;;4977934;28;90442;-35
2022/06/02 02:39:47;;;;;;;16.15;14.43;;;7.80;99.90;;;;;;4977683;28;89920;-37
2022/06/02 02:42:31;;;;;;;22.05;15.15;;;7.70;99.90;;;;;;4978755;28;89810;-33
2022/06/02 02:45:33;;;;;;;16.70;15.05;;;7.70;99.90;;;;;;4977111;28;90391;-36
2022/06/02 02:48:34;;;;;;;17.48;15.68;;;7.70;99.90;;;;;;4978170;28;90330;-35
2022/06/02 02:51:05;;;;;;;19.25;15.23;;;7.70;99.90;;;;;;4976546;28;89779;-34
2022/06/02 02:53:30;;;;;;;18.13;16.25;;;7.70;99.90;;;;;;4977216;28;89509;-38
2022/06/02 02:56:02;;;;;;;17.98;15.65;;;7.70;99.90;;;;;;4979755;28;88726;-33
2022/06/02 02:58:40;;;;;;;17.95;16.15;;;7.70;99.90;;;;;;4981270;28;90162;-33
2022/06/02 03:01:24;;;;;;;19.60;15.70;;;7.70;99.90;;;;;;4981652;28;89735;-33
2022/06/02 03:04:08;;;;;;;17.83;15.88;;;7.70;99.90;;;;;;4981145;28;89608;-33
2022/06/02 03:06:38;;;;;;;18.92;15.00;;;7.70;99.90;;;;;;4981372;28;89140;-34
2022/06/02 03:09:09;;;;;;;17.80;14.63;;;7.60;99.90;;;;;;4981748;28;89987;-33
2022/06/02 03:11:54;;;;;;;15.68;13.82;;;7.60;99.90;;;;;;4980278;28;90015;-36
2022/06/02 03:14:48;;;;;;;17.15;14.95;;;7.60;99.90;;;;;;4980361;28;90243;-35
2022/06/02 03:17:43;;;;;;;17.35;15.48;;;7.60;99.90;;;;;;4981025;28;88304;-33
2022/06/02 03:20:39;;;;;;;17.02;15.32;;;7.60;99.90;;;;;;4981594;28;90286;-34
2022/06/02 03:23:38;;;;;;;17.23;15.43;;;7.60;99.90;;;;;;4981657;28;89902;-33
2022/06/02 03:26:22;;;;;;;20.23;15.80;;;7.60;99.90;;;;;;4980727;28;90474;-37
2022/06/02 03:28:58;;;;;;;16.92;15.15;;;7.60;99.90;;;;;;4980874;28;89492;-33
2022/06/02 03:31:57;;;;;;;15.25;13.50;;;7.50;99.90;;;;;;4980870;28;90392;-35
2022/06/02 03:34:57;;;;;;;18.48;16.52;;;7.50;99.90;;;;;;4980571;28;90329;-35
2022/06/02 03:37:34;;;;;;;18.85;14.75;;;7.50;99.90;;;;;;4980804;28;90304;-36
2022/06/02 03:40:22;;;;;;;16.73;14.95;;;7.50;99.90;;;;;;4979774;28;89874;-33
2022/06/02 03:43:15;;;;;;;19.55;15.48;;;7.50;99.90;;;;;;4980730;28;90069;-34
2022/06/02 03:45:57;;;;;;;18.88;16.95;;;7.50;99.90;;;;;;4980647;28;89830;-33
2022/06/02 03:48:30;;;;;;;17.08;15.38;;;7.60;99.90;;;;;;4979591;28;89205;-34
2022/06/02 03:50:59;;;;;;;19.30;17.20;;;7.60;99.90;;;;;;4980356;28;89699;-34
2022/06/02 03:53:57;;;;;;;22.60;17.48;;;7.70;99.90;;;;;;4978002;28;90258;-37
2022/06/02 03:56:35;;;;;;;19.08;17.02;;;7.70;99.90;;;;;;4980857;28;89869;-33
2022/06/02 03:59:18;;;;;;;17.40;15.52;;;7.70;99.90;;;;;;4980462;28;89589;-36
2022/06/02 04:01:56;;;;;;;22.35;17.92;;;7.70;99.90;;;;;;4980281;28;88934;-33
2022/06/02 04:04:51;;;;;;;20.58;16.30;;;7.70;99.90;;;;;;4980465;28;90571;-34
2022/06/02 04:07:45;;;;;;;18.80;16.83;;;7.80;99.90;;;;;;4978766;28;90687;-35
2022/06/02 04:10:23;;;;;;;17.63;15.60;;;7.80;99.90;;;;;;4980354;28;90765;-35
2022/06/02 04:16:02;;;;;;;20.88;16.95;;;7.90;99.90;;;;;;4979882;28;90129;-33
2022/06/02 04:18:37;;;;;;;19.20;16.25;;;8.00;99.90;;;;;;4979749;28;90378;-33
2022/06/02 04:21:30;;;;;;;23.33;19.40;;;8.10;99.90;;;;;;4980242;28;89553;-33
2022/06/02 04:24:30;;;;;;;21.15;18.95;;;8.10;99.90;;;;;;4979894;28;88797;-36
2022/06/02 04:27:32;;;;;;;20.63;18.48;;;8.30;99.90;;;;;;4979963;28;90361;-35
2022/06/02 04:30:09;;;;;;;18.17;16.38;;;8.60;99.90;;;;;;4927497;28;89772;-37
2022/06/02 04:32:41;;;;;;;23.90;17.03;;;8.90;99.90;;;;;;4980032;28;89900;-35
2022/06/02 04:35:16;;;;;;;19.42;17.48;;;9.10;99.90;;;;;;4979046;28;90489;-36
2022/06/02 04:37:46;;;;;;;19.20;17.13;;;9.30;99.90;;;;;;4980073;28;89736;-33
2022/06/02 04:40:36;;;;;;;20.70;17.45;;;9.60;99.90;;;;;;4979321;28;89845;-33
2022/06/02 04:43:26;;;;;;;18.45;16.10;;;9.80;99.90;;;;;;4979848;28;89688;-35
2022/06/02 04:46:00;;;;;;;19.83;16.58;;;10.10;99.90;;;;;;4979905;28;88806;-33
2022/06/02 04:48:42;;;;;;;16.25;14.45;;;10.40;99.90;;;;;;4979547;28;90216;-35
2022/06/02 04:51:33;;;;;;;19.50;15.40;;;10.60;99.90;;;;;;4979469;28;89717;-33
2022/06/02 04:54:18;;;;;;;18.10;13.85;;;10.60;99.90;;;;;;4978322;28;89359;-34
2022/06/02 04:56:56;;;;;;;16.13;14.52;;;10.90;99.90;;;;;;4979562;28;87583;-33
2022/06/02 04:59:44;;;;;;;17.85;14.38;;;11.20;99.90;;;;;;4979761;28;89008;-33
2022/06/02 05:02:47;;;;;;;14.95;13.13;;;11.30;99.90;;;;;;4978678;28;90662;-32
2022/06/02 05:05:21;;;;;;;13.38;12.15;;;11.70;99.90;;;;;;4978590;28;90434;-32
2022/06/02 05:08:26;;;;;;;14.20;12.52;;;11.80;99.90;;;;;;4979227;28;89299;-34
2022/06/02 05:11:10;;;;;;;18.58;13.15;;;11.90;99.90;;;;;;4978564;28;89746;-36
2022/06/02 05:14:18;;;;;;;15.35;13.02;;;11.90;99.90;;;;;;4978696;28;89833;-34
2022/06/02 05:17:02;;;;;;;13.35;11.82;;;12.20;99.90;;;;;;4970330;28;89500;-36
2022/06/02 05:19:34;;;;;;;16.60;11.85;;;12.50;99.90;;;;;;4977951;28;89261;-33
2022/06/02 05:22:27;;;;;;;16.80;12.10;;;12.50;99.90;;;;;;4980064;28;90326;-34
2022/06/02 05:25:12;;;;;;;17.80;12.15;;;12.60;99.90;;;;;;4978482;28;90228;-34
2022/06/02 05:28:19;;;;;;;12.60;11.25;;;12.80;99.90;;;;;;4978728;28;89597;-34
2022/06/02 05:31:12;;;;;;;13.60;12.18;;;12.70;99.90;;;;;;4978081;28;88858;-34
2022/06/02 05:33:46;;;;;;;11.43;10.23;;;12.70;99.90;;;;;;4978667;28;90208;-34
2022/06/02 05:36:29;;;;;;;11.85;10.73;;;13.10;99.90;;;;;;4979513;28;89594;-33
2022/06/02 05:39:12;;;;;;;12.52;11.23;;;13.30;99.90;;;;;;4978323;28;90153;-36
2022/06/02 05:41:37;;;;;;;12.38;10.00;;;13.10;99.90;;;;;;4978715;28;88462;-36
2022/06/02 05:44:25;;;;;;;13.90;10.07;;;13.10;99.90;;;;;;4978267;28;90949;-35
2022/06/02 05:47:06;;;;;;;10.82;9.77;;;13.40;99.90;;;;;;4978705;28;89670;-36
2022/06/02 05:49:40;;;;;;;14.05;10.50;;;13.40;99.90;;;;;;4979179;28;89778;-35
2022/06/02 05:52:23;;;;;;;11.77;10.50;;;13.80;99.90;;;;;;4978073;28;89417;-37
2022/06/02 05:54:48;;;;;;;11.13;8.55;;;14.10;99.90;;;;;;4977725;28;90130;-36
2022/06/02 05:57:34;;;;;;;9.80;8.80;;;13.90;99.90;;;;;;4978841;28;90741;-35
2022/06/02 06:00:07;;;;;;;10.85;8.85;;;14.40;99.90;;;;;;4978121;28;90605;-36
2022/06/02 06:02:41;;;;;;;8.65;7.78;;;14.60;99.90;;;;;;4971510;28;89926;-37
2022/06/02 06:05:28;;;;;;;8.10;7.40;;;14.40;99.90;;;;;;4960105;28;91727;-34
2022/06/02 06:08:20;;;;;;;8.23;7.45;;;14.80;99.90;;;;;;4966196;28;89816;-33
2022/06/02 06:11:11;;;;;;;8.02;7.32;;;15.10;99.90;;;;;;4976853;28;89588;-34
2022/06/02 06:13:45;;;;;;;8.40;7.55;;;15.30;99.90;;;;;;4978821;28;89503;-37
2022/06/02 06:16:30;;;;;;;7.90;7.05;;;15.10;99.90;;;;;;4978706;28;92199;-34
2022/06/02 06:19:10;;;;;;;8.52;7.72;;;15.10;99.90;;;;;;4978085;28;90097;-34
2022/06/02 06:21:39;;;;;;;6.30;5.70;;;15.40;99.90;;;;;;4978218;28;90109;-34
2022/06/02 06:24:10;;;;;;;;;;;15.70;99.90;;;;;;4978829;28;90569;-35
2022/06/02 06:26:52;;;;;;;6.93;6.22;;;15.50;99.90;;;;;;4972475;28;90151;-36
2022/06/02 06:29:53;;;;;;;6.43;5.53;;;15.80;99.90;;;;;;4975281;28;90423;-33
2022/06/02 06:32:38;;;;;;;5.95;5.32;;;15.90;99.90;;;;;;4981883;28;89531;-37
2022/06/02 06:35:35;;;;;;;7.10;5.68;;;16.30;99.90;;;;;;4982756;28;90391;-34
2022/06/02 06:38:06;;;;;;;7.97;6.93;;;16.10;99.90;;;;;;4982437;28;89765;-34
2022/06/02 06:40:31;;;;;;;6.63;5.82;;;16.30;99.90;;;;;;4982477;28;89260;-35
2022/06/02 06:43:31;;;;;;;7.60;5.30;;;16.40;99.90;;;;;;4980015;28;90305;-34
2022/06/02 06:46:15;;;;;;;8.20;4.72;;;16.80;99.90;;;;;;4980036;28;88637;-35
2022/06/02 06:49:11;;;;;;;6.38;4.90;;;16.60;99.90;;;;;;4979917;28;89762;-39
2022/06/02 06:51:56;;;;;;;5.70;5.07;;;16.70;99.90;;;;;;4979534;28;90175;-39
2022/06/02 06:54:44;;;;;;;4.47;4.07;;;16.70;99.90;;;;;;4979991;28;91485;-36
2022/06/02 06:57:29;;;;;;;;;;;16.20;99.90;;;;;;4980328;28;88667;-35
2022/06/02 07:00:03;;;;;;;8.30;4.22;;;16.40;99.90;;;;;;4979943;28;90656;-37
2022/06/02 07:03:07;;;;;;;4.60;3.17;;;16.40;99.90;;;;;;4980131;28;88994;-37
2022/06/02 07:05:50;;;;;;;3.88;2.97;;;16.30;99.90;;;;;;4977395;28;89614;-36
2022/06/02 07:08:35;;;;;;;3.28;3.00;;;16.40;99.90;;;;;;4970645;28;89043;-37
2022/06/02 07:14:59;;;;;;;3.83;2.67;;;16.00;99.90;;;;;;4973382;28;89957;-36
2022/06/02 07:17:49;;;;;;;3.03;2.70;;;16.00;99.90;;;;;;4963446;28;90133;-35
2022/06/02 07:20:30;;;;;;;4.10;3.45;;;16.40;99.90;;;;;;4979342;28;90251;-32
2022/06/02 07:23:07;;;;;;;5.00;3.08;;;16.50;99.90;;;;;;4979262;28;90558;-36
2022/06/02 07:26:04;;;;;;;3.80;2.95;;;16.00;99.90;;;;;;4979329;28;89375;-34
2022/06/02 07:28:51;;;;;;;2.58;2.38;;;16.70;99.90;;;;;;4941580;28;89571;-34
2022/06/02 07:31:46;;;;;;;2.65;2.22;;;16.40;99.90;;;;;;4979201;28;89453;-35
2022/06/02 07:34:36;;;;;;;2.47;2.22;;;16.00;99.90;;;;;;4979334;28;90208;-34
2022/06/02 07:37:32;;;;;;;2.67;2.47;;;16.50;99.90;;;;;;4979206;28;89529;-35
2022/06/02 07:40:08;;;;;;;3.42;1.63;;;16.00;99.90;;;;;;4979067;28;89909;-34
2022/06/02 07:42:53;;;;;;;2.22;2.08;;;16.60;99.90;;;;;;4979030;28;88196;-38
2022/06/02 07:45:28;;;;;;;3.67;2.05;;;17.00;99.90;;;;;;4979084;28;89947;-35
2022/06/02 07:48:22;;;;;;;3.65;2.10;;;16.60;99.90;;;;;;4977982;28;90559;-32
2022/06/02 07:51:09;;;;;;;1.95;1.85;;;16.90;99.90;;;;;;4979049;28;89983;-35
2022/06/02 07:54:09;;;;;;;2.47;2.28;;;16.80;99.90;;;;;;4979175;28;89274;-36
2022/06/02 07:56:49;;;;;;;3.08;2.00;;;17.60;99.90;;;;;;4979271;28;90283;-35
2022/06/02 07:59:55;;;;;;;2.03;1.88;;;17.70;99.90;;;;;;4978802;28;89967;-37
2022/06/02 08:03:04;;;;;;;2.08;1.70;;;16.70;99.90;;;;;;4948341;28;89766;-34
2022/06/02 08:05:48;;;;;;;1.83;1.67;;;17.40;99.90;;;;;;4979239;28;90072;-34
2022/06/02 08:08:44;;;;;;;1.92;1.80;;;17.10;99.90;;;;;;4979409;28;90585;-35
2022/06/02 08:11:28;;;;;;;1.45;1.35;;;17.20;99.90;;;;;;4978326;28;89514;-37
2022/06/02 08:14:08;;;;;;;2.03;1.90;;;16.70;99.90;;;;;;4979054;28;88175;-37
2022/06/02 08:17:00;;;;;;;2.80;2.60;;;16.70;99.90;;;;;;4978602;28;89690;-35
2022/06/02 08:19:35;;;;;;;2.47;2.05;;;17.10;99.90;;;;;;4978631;28;90101;-35
2022/06/02 08:22:03;;;;;;;1.73;1.63;;;17.90;99.90;;;;;;4978370;28;90199;-37
2022/06/02 08:25:01;;;;;;;1.65;1.40;;;18.40;99.90;;;;;;4978781;28;89826;-35
2022/06/02 08:27:33;;;;;;;2.05;1.75;;;18.30;99.90;;;;;;4979189;28;88521;-37
2022/06/02 08:30:18;;;;;;;1.88;1.70;;;18.00;99.90;;;;;;4977843;28;89508;-34
2022/06/02 08:33:25;;;;;;;2.20;2.03;;;17.70;99.90;;;;;;4978315;28;89153;-37
2022/06/02 08:36:02;;;;;;;2.20;2.08;;;17.80;99.90;;;;;;4916058;28;89542;-35
2022/06/02 08:39:11;;;;;;;2.40;2.20;;;17.80;99.90;;;;;;4970378;28;90292;-34
2022/06/02 08:41:45;;;;;;;2.55;2.35;;;18.20;99.90;;;;;;4978490;28;89870;-36
2022/06/02 08:44:34;;;;;;;4.70;2.47;;;17.90;99.90;;;;;;4960946;28;90200;-36
2022/06/02 08:47:14;;;;;;;3.60;2.45;;;17.80;99.90;;;;;;4959724;28;90482;-35
2022/06/02 08:50:10;;;;;;;2.33;2.13;;;18.00;99.90;;;;;;4958186;28;90106;-33
2022/06/02 08:52:53;;;;;;;2.22;2.00;;;18.60;99.90;;;;;;4970128;28;89891;-36
2022/06/02 08:55:58;;;;;;;1.98;1.88;;;17.80;99.90;;;;;;4959555;28;89677;-35
2022/06/02 08:58:26;;;;;;;5.25;2.67;;;17.40;99.90;;;;;;4960368;28;90611;-35
2022/06/02 09:01:11;;;;;;;7.50;3.03;;;17.40;99.90;;;;;;4972541;28;87944;-37
2022/06/02 09:04:00;;;;;;;2.42;2.22;;;18.30;99.90;;;;;;4977832;28;89928;-34
2022/06/02 09:06:50;;;;;;;2.38;2.20;;;17.90;99.90;;;;;;4977806;28;89064;-35
2022/06/02 09:09:44;;;;;;;2.00;1.90;;;17.00;99.90;;;;;;4977484;28;89985;-34
2022/06/02 09:12:38;;;;;;;3.50;2.55;;;17.90;99.90;;;;;;4977579;28;88983;-34
2022/06/02 09:15:41;;;;;;;2.78;2.47;;;17.00;99.90;;;;;;4976962;28;91227;-34
2022/06/02 09:18:13;;;;;;;3.35;2.55;;;17.30;99.90;;;;;;4977940;28;89395;-34
2022/06/02 09:21:17;;;;;;;3.83;2.92;;;17.90;99.90;;;;;;4977290;28;89108;-35
2022/06/02 09:23:48;;;;;;;2.40;2.20;;;17.90;99.90;;;;;;4975706;28;88535;-37
2022/06/02 09:26:36;;;;;;;2.53;2.33;;;18.10;99.90;;;;;;4977650;28;89178;-35
2022/06/02 09:29:20;;;;;;;2.17;1.98;;;18.50;99.90;;;;;;4978253;28;89721;-34
2022/06/02 09:32:17;;;;;;;2.83;2.58;;;18.80;99.90;;;;;;4977555;28;91256;-34
2022/06/02 09:35:04;;;;;;;3.30;3.00;;;18.80;99.90;;;;;;4977192;28;88989;-35
2022/06/02 09:37:43;;;;;;;2.72;2.53;;;18.40;99.90;;;;;;4976683;28;92164;-34
2022/06/02 09:40:12;;;;;;;4.43;2.25;;;17.90;99.90;;;;;;4974929;28;90271;-37
2022/06/02 09:43:02;;;;;;;2.38;2.17;;;17.80;99.90;;;;;;4977133;28;90746;-35
2022/06/02 09:46:06;;;;;;;2.65;2.45;;;17.80;99.90;;;;;;4977350;28;90024;-36
2022/06/02 09:49:01;;;;;;;3.05;2.22;;;18.20;99.90;;;;;;4976745;28;88881;-34
2022/06/02 09:51:55;;;;;;;3.00;2.67;;;18.60;99.90;;;;;;4976779;28;89839;-33
2022/06/02 09:54:32;;;;;;;3.10;2.58;;;18.50;99.90;;;;;;4976957;28;88752;-34
2022/06/02 09:57:01;;;;;;;9.90;2.92;;;17.40;99.90;;;;;;4976220;28;90287;-34
2022/06/02 09:59:41;;;;;;;2.92;2.17;;;17.80;99.90;;;;;;4976383;28;91553;-33
2022/06/02 10:02:30;;;;;;;4.50;2.25;;;18.10;99.90;;;;;;4975987;28;89739;-35
2022/06/02 10:05:18;;;;;;;3.55;2.60;;;18.40;99.90;;;;;;4975446;28;90622;-37
2022/06/02 10:07:44;;;;;;;2.17;2.08;;;18.90;99.90;;;;;;4975501;28;88254;-38
2022/06/02 10:10:12;;;;;;;3.90;2.30;;;18.60;99.90;;;;;;4976754;28;89874;-37
2022/06/02 10:12:56;;;;;;;2.75;2.55;;;18.30;99.90;;;;;;4976278;28;89762;-35
2022/06/02 10:15:40;;;;;;;5.50;2.55;;;18.10;99.90;;;;;;4975435;28;89919;-37
2022/06/02 10:18:30;;;;;;;2.50;2.30;;;17.50;99.90;;;;;;4976324;28;89571;-39
2022/06/02 10:21:09;;;;;;;2.38;2.17;;;17.40;99.90;;;;;;4975526;28;89852;-35
2022/06/02 10:23:37;;;;;;;3.63;2.45;;;17.20;99.90;;;;;;4975257;28;91482;-38
2022/06/02 10:26:18;;;;;;;1.50;1.40;;;17.20;99.90;;;;;;4975788;28;88265;-34
2022/06/02 10:28:52;;;;;;;1.67;1.58;;;17.00;99.90;;;;;;4976190;28;89270;-34
2022/06/02 10:31:40;;;;;;;5.55;2.45;;;17.70;99.90;;;;;;4976421;28;90406;-35
2022/06/02 10:34:34;;;;;;;2.70;2.50;;;18.10;99.90;;;;;;4976100;28;90482;-36
2022/06/02 10:37:03;;;;;;;2.97;2.78;;;18.80;99.90;;;;;;4969173;28;89892;-35
2022/06/02 10:39:40;;;;;;;2.65;2.28;;;18.50;99.90;;;;;;4976250;28;88748;-35
2022/06/02 10:42:12;;;;;;;2.00;1.90;;;18.60;99.90;;;;;;4976576;28;89922;-39
2022/06/02 10:45:17;;;;;;;2.53;2.33;;;18.90;99.90;;;;;;4975989;28;89484;-35
2022/06/02 10:48:20;;;;;;;2.70;2.50;;;18.40;99.90;;;;;;4973343;28;89675;-38
2022/06/02 10:51:32;;;;;;;2.28;2.08;;;18.30;99.90;;;;;;4976575;28;89430;-37
2022/06/02 10:54:06;;;;;;;2.53;2.13;;;17.90;99.90;;;;;;4975680;28;89452;-36
2022/06/02 10:57:02;;;;;;;2.63;2.22;;;17.60;99.90;;;;;;4976488;28;89523;-35
2022/06/02 10:59:46;;;;;;;2.35;1.60;;;17.40;99.90;;;;;;4976353;28;89487;-36
2022/06/02 11:02:33;;;;;;;2.28;2.17;;;17.30;99.90;;;;;;4975891;28;89037;-35
2022/06/02 11:05:28;;;;;;;2.20;2.00;;;17.60;99.90;;;;;;4974619;28;89738;-37
2022/06/02 11:08:12;;;;;;;3.75;3.08;;;17.30;99.90;;;;;;4975422;28;90174;-35
2022/06/02 11:11:11;;;;;;;2.53;2.13;;;17.10;99.90;;;;;;4976226;28;90057;-34
2022/06/02 11:13:40;;;;;;;2.30;2.10;;;17.10;99.90;;;;;;4975484;28;88184;-35
2022/06/02 11:16:09;;;;;;;3.22;1.80;;;17.20;99.90;;;;;;4975217;28;90329;-36
2022/06/02 11:19:13;;;;;;;2.03;1.92;;;17.00;99.90;;;;;;4977650;28;89856;-37
2022/06/02 11:22:15;;;;;;;2.47;2.20;;;17.00;99.90;;;;;;4945574;28;89948;-33
2022/06/02 11:25:05;;;;;;;2.25;2.05;;;17.00;99.90;;;;;;4978604;28;87632;-35
2022/06/02 11:27:43;;;;;;;2.42;1.98;;;16.90;99.90;;;;;;4977660;28;90017;-35
2022/06/02 11:30:47;;;;;;;2.30;2.10;;;17.00;99.90;;;;;;4978169;28;90683;-33
2022/06/02 11:33:43;;;;;;;2.92;2.70;;;17.20;99.90;;;;;;4979693;28;90061;-35
2022/06/02 11:36:24;;;;;;;2.63;2.42;;;17.20;99.90;;;;;;4979200;28;90563;-34
2022/06/02 11:38:59;;;;;;;3.65;2.60;;;17.40;99.90;;;;;;4978873;28;90477;-40
2022/06/02 11:41:35;;;;;;;2.45;1.75;;;17.00;99.90;;;;;;4978873;28;89149;-34
2022/06/02 11:44:04;;;;;;;3.47;2.95;;;17.00;99.90;;;;;;4979061;28;89647;-33
2022/06/02 11:46:57;;;;;;;2.72;2.50;;;17.00;99.90;;;;;;4978406;28;89198;-35
2022/06/02 11:49:41;;;;;;;2.33;2.15;;;17.10;99.90;;;;;;4979183;28;90646;-34
2022/06/02 11:52:33;;;;;;;2.22;2.03;;;17.30;99.90;;;;;;4978135;28;90777;-34
2022/06/02 11:55:44;;;;;;;2.78;2.22;;;17.30;99.90;;;;;;4978708;28;90138;-34
2022/06/02 11:58:10;;;;;;;3.28;2.05;;;17.80;99.90;;;;;;4978633;28;89026;-35
2022/06/02 12:00:55;;;;;;;2.72;2.30;;;17.90;99.90;;;;;;4978389;28;89209;-35
2022/06/02 12:03:34;;;;;;;2.38;2.25;;;18.00;99.90;;;;;;4978419;28;89387;-36
2022/06/02 12:06:21;;;;;;;1.52;1.45;;;18.30;99.90;;;;;;4978033;28;89004;-34
2022/06/02 12:09:18;;;;;;;2.80;2.40;;;18.50;99.90;;;;;;4979208;28;89495;-36
2022/06/02 12:12:01;;;;;;;2.20;2.00;;;18.60;99.90;;;;;;4978385;28;89677;-36
2022/06/02 12:14:49;;;;;;;2.40;2.20;;;18.00;99.90;;;;;;4978557;28;89729;-34
2022/06/02 12:17:32;;;;;;;2.57;2.37;;;17.70;99.90;;;;;;4978050;28;89471;-35
2022/06/02 12:20:30;;;;;;;2.63;2.13;;;17.60;99.90;;;;;;4978676;28;88058;-34
2022/06/02 12:23:24;;;;;;;2.13;1.88;;;17.60;99.90;;;;;;4977869;28;89743;-36
2022/06/02 12:26:05;;;;;;;2.08;1.88;;;17.40;99.90;;;;;;4976667;28;89536;-34
2022/06/02 12:28:50;;;;;;;5.43;3.15;;;18.00;99.90;;;;;;4977877;28;90370;-37
2022/06/02 12:31:27;;;;;;;3.63;2.30;;;18.40;99.90;;;;;;4977880;28;88146;-35
2022/06/02 12:34:05;;;;;;;1.70;1.60;;;18.70;99.90;;;;;;4977682;28;89171;-33
2022/06/02 12:36:31;;;;;;;3.00;2.28;;;18.70;99.90;;;;;;4976719;28;89582;-35
2022/06/02 12:39:14;;;;;;;2.33;2.13;;;18.90;99.90;;;;;;4977753;28;90568;-33
2022/06/02 12:42:11;;;;;;;2.70;2.17;;;19.30;99.90;;;;;;4977457;28;89393;-37
2022/06/02 12:44:52;;;;;;;1.73;1.63;;;18.80;89.60;;;;;;4952203;28;90174;-36
2022/06/02 12:47:43;;;;;;;2.05;1.95;;;18.60;97.10;;;;;;4977157;28;90155;-36
2022/06/02 12:50:25;;;;;;;3.13;2.22;;;18.10;96.90;;;;;;4978038;28;90269;-33
2022/06/02 12:55:32;;;;;;;16.20;4.93;;;18.00;99.90;;;;;;4955519;28;88060;-35
2022/06/02 12:58:25;;;;;;;2.00;1.90;;;18.30;99.90;;;;;;4957540;28;90094;-35
2022/06/02 13:01:18;;;;;;;1.90;1.70;;;18.60;97.20;;;;;;4939253;28;90037;-35
2022/06/02 13:04:24;;;;;;;7.88;2.20;;;18.80;99.90;;;;;;4957608;28;88396;-36
2022/06/02 13:07:14;;;;;;;3.17;2.60;;;19.50;99.90;;;;;;4957472;28;90540;-34
2022/06/02 13:10:10;;;;;;;2.00;1.63;;;19.80;92.10;;;;;;4958045;28;89737;-38
2022/06/02 13:12:47;;;;;;;1.77;1.67;;;19.70;79.50;;;;;;4957473;28;89586;-37
2022/06/02 13:15:48;;;;;;;2.47;2.28;;;19.40;90.80;;;;;;4958039;28;90270;-34
2022/06/02 13:18:38;;;;;;;3.80;2.38;;;19.30;99.90;;;;;;4943966;28;92068;-38
2022/06/02 13:21:24;;;;;;;2.15;1.95;;;19.30;99.90;;;;;;4956886;28;90416;-38
2022/06/02 13:24:41;;;;;;;7.82;3.25;;;18.70;99.90;;;;;;4957481;28;90464;-35
2022/06/02 13:27:26;;;;;;;11.85;4.65;;;18.30;99.90;;;;;;4957795;28;89158;-38
2022/06/02 13:30:20;;;;;;;3.00;2.70;;;18.00;99.90;;;;;;4957088;28;89928;-38
2022/06/02 13:33:23;;;;;;;4.40;2.50;;;17.80;99.90;;;;;;4957007;28;89558;-35
2022/06/02 13:36:11;;;;;;;5.55;3.08;;;17.70;99.90;;;;;;4957187;28;89658;-33
2022/06/02 13:38:36;;;;;;;2.35;2.00;;;17.70;99.90;;;;;;4957266;28;88511;-35
2022/06/02 13:41:17;;;;;;;4.97;2.55;;;17.60;99.90;;;;;;4956067;28;90569;-36
2022/06/02 13:43:50;;;;;;;5.30;3.00;;;17.60;99.90;;;;;;4956749;28;90142;-36
2022/06/02 13:46:40;;;;;;;5.10;2.55;;;17.60;99.90;;;;;;4956955;28;89423;-35
2022/06/02 13:49:26;;;;;;;2.60;2.40;;;17.80;99.90;;;;;;4957596;28;90652;-36
2022/06/02 13:52:04;;;;;;;2.55;2.35;;;18.00;99.90;;;;;;4956866;28;89595;-34
2022/06/02 13:58:26;;;;;;;2.40;1.90;;;18.00;99.90;;;;;;4944023;28;88774;-33
2022/06/02 14:00:58;;;;;;;3.72;2.28;;;18.00;99.90;;;;;;4956984;28;88103;-37
2022/06/02 14:03:56;;;;;;;2.50;2.20;;;17.80;99.90;;;;;;4956907;28;89689;-37
2022/06/02 14:06:27;;;;;;;3.38;3.00;;;17.80;97.40;;;;;;4957065;28;89663;-34
2022/06/02 14:09:14;;;;;;;3.95;2.45;;;17.70;99.90;;;;;;4957251;28;89410;-35
2022/06/02 14:12:11;;;;;;;3.33;2.63;;;17.70;99.90;;;;;;4956965;28;88739;-35
2022/06/02 14:15:16;;;;;;;2.50;2.30;;;17.70;99.90;;;;;;4956490;28;90801;-34
2022/06/02 14:18:04;;;;;;;2.22;2.10;;;17.90;99.90;;;;;;4955543;28;90838;-35
2022/06/02 14:20:55;;;;;;;5.13;2.65;;;18.00;99.90;;;;;;4957006;28;89725;-33
2022/06/02 14:23:26;;;;;;;2.60;2.40;;;18.10;99.90;;;;;;4957739;28;88038;-35
2022/06/02 14:26:16;;;;;;;2.17;2.05;;;17.90;99.90;;;;;;4956451;28;92004;-36
2022/06/02 14:28:51;;;;;;;2.22;2.13;;;17.90;99.90;;;;;;4956359;28;89643;-34
2022/06/02 14:31:22;;;;;;;4.70;2.42;;;17.80;99.90;;;;;;4956676;28;89843;-38